map of DEA home
DEA - Airport
Location
City:  Dera Ghazi Khan, Punjab, Pakistan
Name:Dera Ghazi Khan International Airport
ICAO:OPDG
IATA:DEA

Details
Type:Airport (Aerodrome, Airfield)
Use:International (customs port of entry)
Latitude:2957'40"N (29.961011)
Longitude:7029'09"E (70.485925)
Datum:WGS 1984
Elevation:492 ft (150 m)
Variation:1.97E (WMM2015v2 magnetic declination)
0.05 annual change
Runways:1
Longest:6499 × 98 ft (1981 × 30 m), paved

Time
Time Zone:UTC+5
Local Time:

Weather
TAF:OPDG 032145Z 0400/0418 05005KT 4000 FU SCT120 TN06/0401Z TX23/0410Z PROB30
TEMPO 0401/404 00000KT 0500 FG NSC
TEMPO 0406/0408 00000KT 1200 HZ SCT120

Related Locations
Nearby:
Farthest:IPC: 12237 mi / 19694 km
Easter Island (Isla de Pascua, Rapa Nui) [Mataveri Intl], VS, CL

Find:

   beyond  
but within

Other Information
Maps:
NOTAMs:
Links:
Sources:

  
  • flag of Pakistan
  • flag of Punjab
  

Sectional Chart

Flight Planning
at skyvector.com

Satellite Image

Google Maps Satellite view

 

Copyright © 2004-2019 Karl L. Swartz. All rights reserved.
The Great Circle Mapper name and logo are trademarks of the Great Circle Mapper.
All other trademarks mentioned herein belong to their respective owners.
Please see credits for attibutions and further copyright information.

  Follow gcmap on Facebook Follow gcmap on Twitter GCmap on LinkedIn

hCard Microformat

Geo Microformat